createdAt,value
2018-11-06T00:01:53.019Z,10.00
2018-11-06T00:04:29.638Z,10.40
2018-11-06T00:07:01.257Z,9.30
2018-11-06T00:09:32.855Z,10.10
2018-11-06T00:12:04.626Z,10.23
2018-11-06T00:14:37.072Z,10.70
2018-11-06T00:17:08.692Z,10.80
2018-11-06T00:19:40.414Z,10.93
2018-11-06T00:22:12.404Z,10.80
2018-11-06T00:24:44.178Z,10.50
2018-11-06T00:27:17.895Z,11.13
2018-11-06T00:29:49.745Z,11.17
2018-11-06T00:32:21.498Z,10.50
2018-11-06T00:34:53.304Z,10.37
2018-11-06T00:37:24.907Z,11.40
2018-11-06T00:39:56.316Z,10.70
2018-11-06T00:42:27.925Z,10.80
2018-11-06T00:44:59.663Z,10.53
2018-11-06T00:47:31.230Z,11.03
2018-11-06T00:50:03.034Z,10.70
2018-11-06T00:52:35.823Z,10.07
2018-11-06T00:55:08.480Z,10.87
2018-11-06T00:57:42.737Z,10.20
2018-11-06T01:00:17.228Z,9.93
2018-11-06T01:02:49.251Z,10.47
2018-11-06T01:05:20.984Z,10.70
2018-11-06T01:07:52.777Z,10.80
2018-11-06T01:10:24.376Z,11.27
2018-11-06T01:12:56.470Z,11.77
2018-11-06T01:15:28.180Z,11.40
2018-11-06T01:17:59.730Z,10.60
2018-11-06T01:20:31.434Z,10.87
2018-11-06T01:23:02.839Z,10.80
2018-11-06T01:25:34.463Z,10.67
2018-11-06T01:28:06.594Z,10.73
2018-11-06T01:30:38.130Z,10.63
2018-11-06T01:33:09.646Z,10.93
2018-11-06T01:35:41.781Z,10.83
2018-11-06T01:38:13.601Z,10.70
2018-11-06T01:40:45.223Z,11.70
2018-11-06T01:43:16.681Z,11.33
2018-11-06T01:45:48.108Z,10.70
2018-11-06T01:48:19.787Z,10.47
2018-11-06T01:50:51.334Z,10.67
2018-11-06T01:53:23.111Z,9.80
2018-11-06T01:55:55.302Z,10.20
2018-11-06T01:58:26.851Z,9.63
2018-11-06T02:00:58.871Z,9.37
2018-11-06T02:03:30.518Z,9.97
2018-11-06T02:06:02.149Z,10.20
2018-11-06T02:08:34.351Z,9.30
2018-11-06T02:11:05.726Z,10.53
2018-11-06T02:13:37.305Z,9.90
2018-11-06T02:16:10.019Z,9.60
2018-11-06T02:18:41.618Z,9.77
2018-11-06T02:21:13.854Z,10.30
2018-11-06T02:23:45.767Z,9.93
2018-11-06T02:26:17.104Z,9.80
2018-11-06T02:28:49.379Z,9.80
2018-11-06T02:31:21.309Z,9.60
2018-11-06T02:33:54.086Z,10.33
2018-11-06T02:36:25.730Z,9.87
2018-11-06T02:38:57.489Z,9.00
2018-11-06T02:41:29.343Z,8.97
2018-11-06T02:44:01.379Z,10.07
2018-11-06T02:46:33.657Z,9.50
2018-11-06T02:49:05.238Z,9.50
2018-11-06T02:51:37.072Z,9.40
2018-11-06T02:54:08.659Z,9.60
2018-11-06T02:56:40.263Z,9.43
2018-11-06T02:59:11.980Z,11.13
2018-11-06T03:01:44.935Z,10.40
2018-11-06T03:04:16.353Z,9.57
2018-11-06T03:06:48.412Z,9.50
2018-11-06T03:09:20.320Z,9.83
2018-11-06T03:11:51.754Z,9.23
2018-11-06T03:14:23.542Z,11.40
2018-11-06T03:16:55.514Z,9.90
2018-11-06T03:19:27.151Z,10.00
2018-11-06T03:21:59.246Z,9.80
2018-11-06T03:24:31.292Z,10.80
2018-11-06T03:27:02.585Z,9.30
2018-11-06T03:29:34.477Z,9.67
2018-11-06T03:32:05.879Z,10.60
2018-11-06T03:34:37.318Z,9.70
2018-11-06T03:37:09.351Z,11.50
2018-11-06T03:39:40.635Z,10.87
2018-11-06T03:42:12.243Z,9.90
2018-11-06T03:44:43.875Z,10.60
2018-11-06T03:47:15.310Z,10.33
2018-11-06T03:49:46.885Z,10.20
2018-11-06T03:52:18.448Z,10.13
2018-11-06T03:54:49.826Z,9.93
2018-11-06T03:57:22.257Z,10.33
2018-11-06T03:59:53.553Z,10.40
2018-11-06T04:02:25.981Z,9.73
2018-11-06T04:04:58.001Z,10.10
2018-11-06T04:07:31.101Z,10.27
2018-11-06T04:10:03.237Z,9.93
2018-11-06T04:12:34.640Z,10.90
2018-11-06T04:15:06.450Z,10.73
2018-11-06T04:17:38.018Z,9.43
2018-11-06T04:20:10.182Z,9.93
2018-11-06T04:22:42.276Z,10.40
2018-11-06T04:25:13.589Z,10.00
2018-11-06T04:27:45.311Z,10.23
2018-11-06T04:30:17.053Z,9.30
2018-11-06T04:32:48.801Z,10.13
2018-11-06T04:35:20.802Z,9.47
2018-11-06T04:37:52.692Z,9.20
2018-11-06T04:40:24.439Z,9.63
2018-11-06T04:42:56.141Z,9.27
2018-11-06T04:45:28.070Z,8.80
2018-11-06T04:48:00.355Z,9.00
2018-11-06T04:50:32.861Z,9.47
2018-11-06T04:53:04.582Z,9.83
2018-11-06T04:55:36.262Z,9.47
2018-11-06T04:58:07.623Z,10.60
2018-11-06T05:00:39.738Z,11.87
2018-11-06T05:03:11.654Z,10.37
2018-11-06T05:05:43.159Z,11.60
2018-11-06T05:08:14.488Z,11.80
2018-11-06T05:10:47.574Z,11.73
2018-11-06T05:13:19.007Z,11.17
2018-11-06T05:15:50.531Z,11.00
2018-11-06T05:18:22.161Z,11.50
2018-11-06T05:20:53.562Z,10.00
2018-11-06T05:23:25.042Z,10.03
2018-11-06T05:25:56.767Z,9.63
2018-11-06T05:28:28.984Z,9.30
2018-11-06T05:35:47.889Z,9.30
2018-11-06T05:38:19.247Z,9.17
2018-11-06T05:41:07.841Z,9.17
2018-11-06T05:43:39.744Z,9.47
2018-11-06T05:46:11.299Z,10.20
2018-11-06T05:48:42.789Z,10.60
2018-11-06T05:51:14.366Z,9.97
2018-11-06T05:53:46.242Z,9.73
2018-11-06T05:56:17.863Z,11.23
2018-11-06T05:58:49.050Z,11.50
2018-11-06T06:01:20.634Z,11.23
2018-11-06T06:03:52.216Z,10.80
2018-11-06T06:06:23.202Z,11.03
2018-11-06T06:08:55.430Z,10.50
2018-11-06T06:11:26.709Z,11.27
2018-11-06T06:13:58.325Z,10.80
2018-11-06T06:16:30.471Z,11.53
2018-11-06T06:19:02.318Z,10.77
2018-11-06T06:21:33.665Z,11.40
2018-11-06T06:24:05.133Z,11.20
2018-11-06T06:26:36.592Z,11.97
2018-11-06T06:29:09.323Z,11.20
2018-11-06T06:31:40.971Z,12.10
2018-11-06T06:34:12.433Z,10.73
2018-11-06T06:36:44.398Z,9.30
2018-11-06T06:39:16.657Z,9.50
2018-11-06T06:41:47.661Z,7.83
2018-11-06T06:44:19.372Z,7.80
2018-11-06T06:46:50.768Z,7.30
2018-11-06T06:49:22.663Z,6.20
2018-11-06T06:51:53.730Z,5.73
2018-11-06T06:54:24.989Z,6.77
2018-11-06T06:56:57.010Z,6.10
2018-11-06T06:59:28.960Z,6.70
2018-11-06T07:02:00.538Z,6.10
2018-11-06T07:04:31.712Z,6.33
2018-11-06T07:07:02.834Z,6.77
2018-11-06T07:09:34.671Z,6.47
2018-11-06T07:12:08.360Z,6.00
2018-11-06T07:14:39.692Z,6.00
2018-11-06T07:17:11.236Z,6.27
2018-11-06T07:19:42.926Z,5.60
2018-11-06T07:22:15.781Z,6.23
2018-11-06T07:24:47.868Z,6.00
2018-11-06T07:27:20.686Z,6.17
2018-11-06T07:29:52.324Z,5.60
2018-11-06T07:32:24.224Z,5.23
2018-11-06T07:34:56.751Z,5.60
2018-11-06T07:37:29.931Z,6.17
2018-11-06T07:40:02.352Z,5.90
2018-11-06T07:42:34.072Z,7.37
2018-11-06T07:45:06.609Z,7.23
2018-11-06T07:47:38.902Z,10.50
2018-11-06T07:50:11.773Z,21.70
2018-11-06T07:52:43.710Z,28.70
2018-11-06T07:55:17.508Z,9.13
2018-11-06T07:57:48.839Z,10.03
2018-11-06T08:00:25.752Z,9.73
2018-11-06T08:02:57.927Z,12.70
2018-11-06T08:05:33.149Z,14.73
2018-11-06T08:08:09.140Z,14.30
2018-11-06T08:10:41.022Z,10.00
2018-11-06T08:13:12.494Z,20.57
2018-11-06T08:15:43.619Z,18.40
2018-11-06T08:18:15.185Z,13.00
2018-11-06T08:20:46.790Z,11.17
2018-11-06T08:23:18.656Z,9.40
2018-11-06T08:25:51.206Z,8.77
2018-11-06T08:28:23.126Z,8.70
2018-11-06T08:30:54.753Z,13.90
2018-11-06T08:33:27.608Z,10.03
2018-11-06T08:36:01.088Z,9.13
2018-11-06T08:38:32.686Z,8.00
2018-11-06T08:41:04.463Z,7.60
2018-11-06T08:43:36.128Z,22.27
2018-11-06T08:46:08.074Z,12.93
2018-11-06T08:48:39.374Z,9.93
2018-11-06T08:51:12.000Z,9.47
2018-11-06T08:53:43.899Z,7.80
2018-11-06T08:56:16.602Z,7.33
2018-11-06T08:58:48.077Z,7.80
2018-11-06T09:01:19.228Z,7.13
2018-11-06T09:03:50.341Z,8.37
2018-11-06T09:06:22.845Z,9.53
2018-11-06T09:08:54.502Z,8.80
2018-11-06T09:11:26.111Z,9.50
2018-11-06T09:13:58.431Z,11.90
2018-11-06T09:16:30.077Z,13.37
2018-11-06T09:19:02.761Z,13.80
2018-11-06T09:21:36.012Z,13.30
2018-11-06T09:24:08.073Z,14.50
2018-11-06T09:26:39.370Z,14.80
2018-11-06T09:29:11.117Z,17.63
2018-11-06T09:31:42.658Z,18.10
2018-11-06T09:34:14.578Z,16.63
2018-11-06T09:36:46.788Z,22.67
2018-11-06T09:39:18.773Z,18.07
2018-11-06T09:41:49.994Z,14.77
2018-11-06T09:44:23.186Z,12.97
2018-11-06T09:46:54.675Z,11.70
2018-11-06T09:49:26.386Z,15.37
2018-11-06T09:51:58.569Z,22.77
2018-11-06T09:54:30.215Z,18.13
2018-11-06T09:57:01.152Z,15.17
2018-11-06T09:59:33.196Z,19.60
2018-11-06T10:02:05.128Z,22.33
2018-11-06T10:04:36.753Z,14.03
2018-11-06T10:07:10.313Z,15.07
2018-11-06T10:09:41.399Z,23.57
2018-11-06T10:12:13.079Z,18.17
2018-11-06T10:14:45.656Z,17.80
2018-11-06T10:17:17.929Z,12.47
2018-11-06T10:19:49.756Z,14.40
2018-11-06T10:22:22.294Z,13.00
2018-11-06T10:24:54.346Z,13.77
2018-11-06T10:27:25.903Z,17.60
2018-11-06T10:29:57.551Z,15.33
2018-11-06T10:32:29.714Z,13.80
2018-11-06T10:35:01.849Z,12.13
2018-11-06T10:37:33.799Z,12.13
2018-11-06T10:40:06.269Z,14.27
2018-11-06T10:42:37.770Z,14.10
2018-11-06T10:45:09.722Z,13.03
2018-11-06T10:47:41.677Z,12.20
2018-11-06T10:50:14.548Z,12.57
2018-11-06T10:52:46.661Z,13.50
2018-11-06T10:55:18.049Z,13.53
2018-11-06T10:57:49.658Z,13.37
2018-11-06T11:00:26.159Z,13.50
2018-11-06T11:03:06.367Z,12.80
2018-11-06T11:05:41.250Z,13.03
2018-11-06T11:08:15.872Z,14.10
2018-11-06T11:10:48.107Z,12.87
2018-11-06T11:13:20.933Z,14.23
2018-11-06T11:15:53.556Z,13.53
2018-11-06T11:18:26.164Z,13.40
2018-11-06T11:20:58.625Z,14.57
2018-11-06T11:23:31.641Z,14.67
2018-11-06T11:26:03.800Z,13.33
2018-11-06T11:28:36.203Z,14.50
2018-11-06T11:31:08.903Z,13.17
2018-11-06T11:33:40.343Z,14.07
2018-11-06T11:36:11.898Z,13.70
2018-11-06T11:38:43.655Z,14.07
2018-11-06T11:41:16.354Z,12.50
2018-11-06T11:43:48.088Z,13.33
2018-11-06T11:46:19.193Z,12.13
2018-11-06T11:48:51.234Z,11.63
2018-11-06T11:51:23.268Z,10.47
2018-11-06T11:53:55.020Z,11.23
2018-11-06T11:56:27.029Z,11.60
2018-11-06T11:58:59.083Z,11.73
2018-11-06T12:01:31.773Z,11.73
2018-11-06T12:04:04.257Z,11.60
2018-11-06T12:06:37.216Z,11.30
2018-11-06T12:09:11.568Z,11.33
2018-11-06T12:11:43.089Z,10.90
2018-11-06T12:14:14.837Z,11.30
2018-11-06T12:16:45.919Z,11.80
2018-11-06T12:19:18.032Z,12.17
2018-11-06T12:21:51.095Z,12.20
2018-11-06T12:24:23.982Z,11.80
2018-11-06T12:26:56.026Z,11.53
2018-11-06T12:29:28.107Z,11.63
2018-11-06T12:32:00.682Z,11.70
2018-11-06T12:34:33.430Z,10.87
2018-11-06T12:37:05.637Z,11.37
2018-11-06T12:39:37.839Z,11.90
2018-11-06T12:42:10.721Z,11.50
2018-11-06T12:44:43.577Z,11.00
2018-11-06T12:47:15.078Z,11.70
2018-11-06T12:49:46.674Z,12.00
2018-11-06T12:52:18.260Z,11.70
2018-11-06T12:54:49.523Z,12.30
2018-11-06T12:57:21.951Z,12.33
2018-11-06T12:59:53.644Z,11.63
2018-11-06T13:02:25.622Z,11.70
2018-11-06T13:04:58.594Z,12.23
2018-11-06T13:07:30.523Z,12.13
2018-11-06T13:10:04.996Z,11.80
2018-11-06T13:12:36.624Z,11.67
2018-11-06T13:15:08.917Z,13.27
2018-11-06T13:17:40.845Z,12.90
2018-11-06T13:20:15.066Z,12.43
2018-11-06T13:22:47.385Z,13.27
2018-11-06T13:25:20.221Z,12.60
2018-11-06T13:27:51.749Z,13.23
2018-11-06T13:30:23.577Z,14.43
2018-11-06T13:32:54.815Z,13.60
2018-11-06T13:35:27.000Z,13.60
2018-11-06T13:37:58.818Z,13.77
2018-11-06T13:40:32.199Z,13.23
2018-11-06T13:43:10.330Z,14.20
2018-11-06T13:45:41.765Z,13.13
2018-11-06T13:48:14.165Z,13.77
2018-11-06T13:50:46.732Z,13.43
2018-11-06T13:53:18.674Z,14.43
2018-11-06T13:55:51.420Z,14.47
2018-11-06T13:58:27.849Z,14.23
2018-11-06T14:01:02.469Z,14.60
2018-11-06T14:03:34.307Z,14.07
2018-11-06T14:06:05.754Z,14.73
2018-11-06T14:08:41.829Z,15.00
2018-11-06T14:11:13.142Z,14.53
2018-11-06T14:13:44.846Z,13.57
2018-11-06T14:16:17.428Z,13.10
2018-11-06T14:18:51.148Z,14.80
2018-11-06T14:21:22.715Z,15.20
2018-11-06T14:23:54.741Z,13.73
2018-11-06T14:26:26.234Z,13.70
2018-11-06T14:28:57.513Z,13.40
2018-11-06T14:31:28.656Z,13.63
2018-11-06T14:34:00.706Z,14.40
2018-11-06T14:36:32.187Z,14.97
2018-11-06T14:39:03.394Z,15.20
2018-11-06T14:41:35.699Z,15.43
2018-11-06T14:44:07.534Z,15.40
2018-11-06T14:46:39.963Z,18.63
2018-11-06T14:49:11.761Z,21.73
2018-11-06T14:51:43.373Z,23.60
2018-11-06T14:54:15.342Z,24.63
2018-11-06T14:56:47.305Z,25.57
2018-11-06T14:59:18.932Z,28.77
2018-11-06T15:01:50.521Z,28.30
2018-11-06T15:04:24.413Z,29.20
2018-11-06T15:06:56.239Z,29.07
2018-11-06T15:09:27.789Z,29.20
2018-11-06T15:12:01.424Z,27.00
2018-11-06T15:14:33.316Z,28.13
2018-11-06T15:17:04.998Z,26.80
2018-11-06T15:19:37.113Z,26.77
2018-11-06T15:22:12.794Z,27.10
2018-11-06T15:24:47.215Z,29.23
2018-11-06T15:27:18.775Z,27.30
2018-11-06T15:29:50.348Z,26.23
2018-11-06T15:32:22.048Z,28.83
2018-11-06T15:34:57.016Z,28.07
2018-11-06T15:37:29.396Z,24.67
2018-11-06T15:40:07.919Z,25.57
2018-11-06T15:42:41.126Z,26.57
2018-11-06T15:45:15.975Z,26.83
2018-11-06T15:47:50.610Z,26.97
2018-11-06T15:50:23.954Z,25.40
2018-11-06T15:52:56.276Z,27.30
2018-11-06T15:55:28.714Z,26.70
2018-11-06T15:58:01.380Z,25.33
2018-11-06T16:00:33.950Z,26.20
2018-11-06T16:03:05.472Z,24.10
2018-11-06T16:05:37.475Z,26.40
2018-11-06T16:08:09.765Z,25.50
2018-11-06T16:10:41.265Z,25.07
2018-11-06T16:13:12.746Z,25.60
2018-11-06T16:15:44.108Z,25.90
2018-11-06T16:18:17.838Z,23.67
2018-11-06T16:20:49.448Z,25.83
2018-11-06T16:23:20.704Z,24.73
2018-11-06T16:25:55.644Z,25.03
2018-11-06T16:28:28.977Z,25.67
2018-11-06T16:31:01.202Z,24.77
2018-11-06T16:33:33.488Z,25.33
2018-11-06T16:36:05.127Z,25.10
2018-11-06T16:38:36.691Z,24.10
2018-11-06T16:41:09.290Z,26.77
2018-11-06T16:43:41.214Z,24.33
2018-11-06T16:46:13.457Z,23.87
2018-11-06T16:48:45.788Z,24.20
2018-11-06T16:51:16.974Z,23.50
2018-11-06T16:53:49.168Z,23.27
2018-11-06T16:56:21.618Z,23.50
2018-11-06T16:58:53.324Z,25.80
2018-11-06T17:01:24.956Z,26.97
2018-11-06T17:03:57.424Z,26.20
2018-11-06T17:06:34.425Z,24.17
2018-11-06T17:09:08.169Z,22.10
2018-11-06T17:11:41.642Z,21.13
2018-11-06T17:14:13.230Z,21.00
2018-11-06T17:16:50.025Z,20.70
2018-11-06T17:19:22.822Z,22.63
2018-11-06T17:21:58.281Z,22.50
2018-11-06T17:24:29.937Z,22.93
2018-11-06T17:27:02.280Z,22.43
2018-11-06T17:29:34.091Z,21.60
2018-11-06T17:32:05.646Z,21.20
2018-11-06T17:34:36.762Z,22.27
2018-11-06T17:37:09.291Z,20.80
2018-11-06T17:39:40.839Z,19.13
2018-11-06T17:42:12.285Z,24.60
2018-11-06T17:44:44.627Z,25.80
2018-11-06T17:47:17.464Z,25.03
2018-11-06T17:49:50.781Z,24.23
2018-11-06T17:52:23.896Z,22.90
2018-11-06T17:54:56.426Z,23.77
2018-11-06T17:57:27.495Z,23.13
2018-11-06T18:00:00.616Z,26.00
2018-11-06T18:02:32.674Z,25.07
2018-11-06T18:05:04.236Z,25.47
2018-11-06T18:07:38.077Z,23.80
2018-11-06T18:10:10.947Z,24.43
2018-11-06T18:12:42.265Z,24.30
2018-11-06T18:15:18.271Z,26.20
2018-11-06T18:17:51.140Z,25.10
2018-11-06T18:20:22.568Z,23.77
2018-11-06T18:22:53.896Z,25.03
2018-11-06T18:25:25.739Z,24.50
2018-11-06T18:27:57.844Z,24.83
2018-11-06T18:30:30.968Z,24.20
2018-11-06T18:33:02.302Z,25.47
2018-11-06T18:35:33.445Z,26.47
2018-11-06T18:38:05.785Z,25.93
2018-11-06T18:40:39.920Z,23.87
2018-11-06T18:43:12.795Z,24.87
2018-11-06T18:45:44.583Z,24.43
2018-11-06T18:48:16.867Z,25.43
2018-11-06T18:50:48.367Z,26.47
2018-11-06T18:53:19.927Z,27.50
2018-11-06T18:55:51.095Z,26.30
2018-11-06T18:58:22.838Z,25.37
2018-11-06T19:00:54.142Z,25.90
2018-11-06T19:03:25.162Z,23.43
2018-11-06T19:05:56.796Z,23.40
2018-11-06T19:08:29.079Z,24.90
2018-11-06T19:11:01.722Z,25.33
2018-11-06T19:13:33.267Z,24.00
2018-11-06T19:16:06.669Z,26.33
2018-11-06T19:18:39.351Z,26.47
2018-11-06T19:21:10.653Z,22.60
2018-11-06T19:23:41.716Z,24.87
2018-11-06T19:26:16.638Z,25.83
2018-11-06T19:28:48.229Z,30.93
2018-11-06T19:31:20.128Z,34.63
2018-11-06T19:33:52.663Z,30.97
2018-11-06T19:36:28.133Z,26.27
2018-11-06T19:38:59.433Z,25.50
2018-11-06T19:41:30.759Z,24.83
2018-11-06T19:44:03.540Z,22.77
2018-11-06T19:46:35.104Z,23.80
2018-11-06T19:49:08.463Z,23.40
2018-11-06T19:51:39.535Z,21.60
2018-11-06T19:54:11.821Z,22.40
2018-11-06T19:56:42.980Z,22.00
2018-11-06T19:59:16.320Z,20.60
2018-11-06T20:01:47.906Z,21.17
2018-11-06T20:04:19.180Z,21.20
2018-11-06T20:06:51.340Z,21.40
2018-11-06T20:09:23.423Z,21.57
2018-11-06T20:11:56.393Z,19.97
2018-11-06T20:14:28.924Z,20.87
2018-11-06T20:17:00.119Z,19.47
2018-11-06T20:19:31.451Z,19.70
2018-11-06T20:22:02.943Z,21.67
2018-11-06T20:24:35.425Z,20.43
2018-11-06T20:27:08.258Z,21.33
2018-11-06T20:29:40.667Z,21.70
2018-11-06T20:32:11.888Z,20.87
2018-11-06T20:34:43.307Z,20.47
2018-11-06T20:37:15.715Z,21.00
2018-11-06T20:39:47.984Z,20.73
2018-11-06T20:42:20.841Z,22.00
2018-11-06T20:44:53.137Z,23.23
2018-11-06T20:47:24.545Z,21.73
2018-11-06T20:49:57.157Z,22.43
2018-11-06T20:52:29.802Z,21.40
2018-11-06T20:55:01.639Z,19.57
2018-11-06T20:57:33.785Z,21.43
2018-11-06T21:00:06.068Z,20.50
2018-11-06T21:02:37.552Z,21.30
2018-11-06T21:05:09.783Z,21.80
2018-11-06T21:07:41.528Z,22.20
2018-11-06T21:10:17.721Z,20.23
2018-11-06T21:12:49.881Z,19.20
2018-11-06T21:15:21.471Z,20.47
2018-11-06T21:17:53.399Z,21.70
2018-11-06T21:20:25.000Z,22.30
2018-11-06T21:22:56.327Z,20.90
2018-11-06T21:25:28.793Z,21.13
2018-11-06T21:28:01.723Z,20.60
2018-11-06T21:30:33.847Z,20.00
2018-11-06T21:33:06.007Z,22.93
2018-11-06T21:35:37.282Z,23.37
2018-11-06T21:38:09.693Z,23.20
2018-11-06T21:40:41.057Z,23.47
2018-11-06T21:43:12.073Z,20.80
2018-11-06T21:45:43.115Z,21.60
2018-11-06T21:48:15.152Z,21.90
2018-11-06T21:50:46.697Z,20.57
2018-11-06T21:53:17.884Z,22.27
2018-11-06T21:55:49.326Z,21.33
2018-11-06T21:58:20.939Z,21.87
2018-11-06T22:00:52.639Z,19.80
2018-11-06T22:03:24.481Z,22.20
2018-11-06T22:05:57.718Z,23.53
2018-11-06T22:08:28.774Z,22.00
2018-11-06T22:11:01.281Z,22.20
2018-11-06T22:13:32.710Z,21.40
2018-11-06T22:16:05.451Z,22.83
2018-11-06T22:18:37.188Z,22.57
2018-11-06T22:21:09.333Z,23.07
2018-11-06T22:23:40.643Z,22.83
2018-11-06T22:26:12.094Z,22.60
2018-11-06T22:28:43.328Z,19.90
2018-11-06T22:31:14.782Z,21.70
2018-11-06T22:33:46.112Z,23.43
2018-11-06T22:36:17.691Z,21.80
2018-11-06T22:38:49.377Z,21.50
2018-11-06T22:41:21.089Z,21.20
2018-11-06T22:43:52.929Z,20.60
2018-11-06T22:46:23.843Z,19.63
2018-11-06T22:48:55.729Z,18.30
2018-11-06T22:51:27.751Z,19.87
2018-11-06T22:53:59.595Z,18.30
2018-11-06T22:56:31.710Z,17.97
2018-11-06T22:59:03.445Z,17.13
2018-11-06T23:01:35.149Z,18.20
2018-11-06T23:04:06.906Z,18.10
2018-11-06T23:06:38.842Z,17.30
2018-11-06T23:09:11.886Z,17.30
2018-11-06T23:11:42.859Z,17.70
2018-11-06T23:14:14.626Z,17.90
2018-11-06T23:16:46.529Z,17.83
2018-11-06T23:19:18.178Z,17.10
2018-11-06T23:21:50.194Z,16.43
2018-11-06T23:24:21.160Z,18.03
2018-11-06T23:26:53.903Z,17.70
2018-11-06T23:29:25.598Z,17.73
2018-11-06T23:31:57.517Z,17.53
2018-11-06T23:34:31.072Z,17.00
2018-11-06T23:37:03.475Z,18.00
2018-11-06T23:39:35.453Z,16.67
2018-11-06T23:42:06.990Z,15.93
2018-11-06T23:44:39.002Z,15.57
2018-11-06T23:47:10.459Z,19.67
2018-11-06T23:49:41.743Z,19.30
2018-11-06T23:52:13.536Z,18.13
2018-11-06T23:54:45.196Z,18.53
2018-11-06T23:57:16.602Z,18.07
2018-11-06T23:59:47.994Z,16.53
